Time;durP1;ratioP1;P1;durP2;ratioP2;P2;SDS_P1;SDS_P2;PMS_P1;PMS_P2;Temp;Humidity;BMP_temperature;BMP_pressure;BME280_temperature;BME280_humidity;BME280_pressure;Samples;Min_cycle;Max_cycle;Signal;HPM_P1;HPM_P2
2022/02/05 00:05:38;;;;;;;17.52;9.88;;;;;;;17.27;49.14;101511.28;5003010;28;20033;-81
2022/02/05 00:43:02;;;;;;;14.18;7.97;;;;;;;17.23;48.92;101542.50;5009169;28;20112;-79
2022/02/05 00:45:32;;;;;;;12.40;7.88;;;;;;;17.22;48.92;101549.44;5024413;28;20069;-79
2022/02/05 00:48:00;;;;;;;14.07;7.75;;;;;;;17.22;48.52;101548.53;5005237;28;20034;-78
2022/02/05 00:50:27;;;;;;;12.52;6.85;;;;;;;17.22;48.63;101564.16;5036424;28;20080;-78
2022/02/05 00:53:03;;;;;;;12.25;7.10;;;;;;;17.21;48.97;101565.03;4999545;28;20054;-79
2022/02/05 00:55:33;;;;;;;11.43;7.40;;;;;;;17.21;48.70;101571.09;4999964;28;20034;-79
2022/02/05 00:58:02;;;;;;;9.93;6.55;;;;;;;17.20;48.84;101564.16;5007876;28;20086;-78
2022/02/05 01:00:30;;;;;;;12.30;6.72;;;;;;;17.20;48.65;101571.06;4982449;28;20022;-78
2022/02/05 01:02:59;;;;;;;10.98;7.15;;;;;;;17.20;48.74;101573.69;4989460;28;20058;-78
2022/02/05 01:05:24;;;;;;;13.65;7.88;;;;;;;17.20;48.85;101577.16;5014595;28;20459;-78
2022/02/05 01:07:50;;;;;;;11.23;6.68;;;;;;;17.20;48.61;101573.69;5014576;28;20069;-78
2022/02/05 01:10:16;;;;;;;11.68;6.97;;;;;;;17.19;48.80;101583.22;4998669;28;20026;-79
2022/02/05 01:12:49;;;;;;;11.77;6.93;;;;;;;17.19;48.87;101579.75;5013946;28;20026;-78
2022/02/05 01:15:17;;;;;;;11.30;7.00;;;;;;;17.19;48.65;101587.56;4998549;28;20381;-78
2022/02/05 01:17:51;;;;;;;12.38;6.95;;;;;;;17.19;48.54;101590.16;4998791;28;20126;-78
2022/02/05 01:22:43;;;;;;;10.52;6.50;;;;;;;17.18;48.65;101609.22;4960084;28;20058;-81
2022/02/05 01:25:10;;;;;;;11.20;6.38;;;;;;;17.19;48.81;101616.16;4983608;28;20046;-77
2022/02/05 01:30:13;;;;;;;11.32;6.50;;;;;;;17.18;48.76;101614.41;4962200;28;20037;-78
2022/02/05 01:32:45;;;;;;;10.77;5.97;;;;;;;17.17;48.52;101623.09;5015345;28;20033;-78
2022/02/05 01:35:26;;;;;;;9.85;6.03;;;;;;;17.16;48.42;101618.72;5012644;28;20105;-77
2022/02/05 01:56:46;;;;;;;11.15;5.50;;;;;;;17.15;48.61;101653.41;5032550;28;20065;-81
2022/02/05 01:59:20;;;;;;;8.65;5.25;;;;;;;17.14;48.58;101657.75;4987628;28;20036;-82
2022/02/05 02:04:51;;;;;;;;;;;;;;;17.13;48.52;101666.41;4989972;28;20092;-81
2022/02/05 02:11:11;;;;;;;9.77;5.38;;;;;;;17.13;48.71;101669.00;5016212;28;20033;-82
2022/02/05 02:21:08;;;;;;;8.63;4.63;;;;;;;17.13;48.47;101670.75;5015711;28;20535;-77
2022/02/05 02:29:22;;;;;;;7.93;4.50;;;;;;;17.12;48.53;101672.47;4942205;29;20031;-78
2022/02/05 02:31:50;;;;;;;9.02;4.80;;;;;;;17.11;48.40;101678.53;4995344;28;20096;-77
2022/02/05 02:34:21;;;;;;;9.23;4.70;;;;;;;17.11;48.47;101681.13;5015102;28;20458;-77
2022/02/05 02:36:54;;;;;;;7.65;4.47;;;;;;;17.11;48.38;101683.72;5010933;28;20479;-78
2022/02/05 02:39:26;;;;;;;7.90;4.57;;;;;;;17.10;48.69;101697.59;5016475;28;20112;-77
2022/02/05 02:42:00;;;;;;;6.68;4.32;;;;;;;17.10;48.44;101695.00;5000429;28;20033;-77
2022/02/05 02:44:26;;;;;;;6.22;4.00;;;;;;;17.09;48.37;101698.44;5026359;28;20025;-77
2022/02/05 02:46:51;;;;;;;7.90;4.55;;;;;;;17.10;48.58;101699.34;5013864;28;20108;-77
2022/02/05 02:49:23;;;;;;;6.70;4.20;;;;;;;17.10;48.57;101697.59;5017704;28;20036;-77
2022/02/05 02:57:38;;;;;;;6.90;3.65;;;;;;;17.09;48.34;101714.06;4923447;29;20478;-76
2022/02/05 03:00:11;;;;;;;6.63;3.72;;;;;;;17.09;48.19;101718.41;4942460;29;20031;-76
2022/02/05 03:02:36;;;;;;;8.05;4.40;;;;;;;17.08;48.43;101714.06;4993480;28;20561;-76
2022/02/05 03:05:02;;;;;;;6.88;3.83;;;;;;;17.08;48.46;101719.28;5020125;28;20061;-76
2022/02/05 03:07:27;;;;;;;8.60;4.50;;;;;;;17.08;48.40;101716.66;5013677;28;20117;-77
2022/02/05 03:09:55;;;;;;;7.72;4.07;;;;;;;17.06;48.44;101722.72;4995858;28;20030;-76
2022/02/05 03:12:21;;;;;;;6.57;4.07;;;;;;;17.07;48.29;101720.97;4996082;28;20034;-76
2022/02/05 03:14:47;;;;;;;6.25;3.63;;;;;;;17.08;48.28;101719.28;4997588;28;20384;-76
2022/02/05 03:17:19;;;;;;;6.15;3.80;;;;;;;17.06;48.32;101720.13;5015390;28;20033;-76
2022/02/05 03:19:48;;;;;;;7.53;3.85;;;;;;;17.07;48.55;101723.56;4968890;28;20025;-76
2022/02/05 03:22:18;;;;;;;6.68;3.97;;;;;;;17.06;48.39;101727.91;5015318;28;20033;-75
2022/02/05 03:24:44;;;;;;;6.30;3.85;;;;;;;17.05;48.26;101728.78;5015096;28;20017;-75
2022/02/05 03:27:14;;;;;;;7.32;4.10;;;;;;;17.05;48.30;101734.00;5015134;28;20025;-76
2022/02/05 03:29:43;;;;;;;6.70;3.63;;;;;;;17.05;48.42;101733.13;5012550;28;20030;-76
2022/02/05 03:32:09;;;;;;;6.55;3.90;;;;;;;17.03;48.30;101730.50;4999723;28;20395;-76
2022/02/05 03:34:35;;;;;;;6.75;3.30;;;;;;;17.04;48.50;101726.16;5013368;28;20036;-76
2022/02/05 03:37:01;;;;;;;5.70;3.80;;;;;;;17.05;48.52;101735.72;4979659;28;20026;-76
2022/02/05 03:39:26;;;;;;;6.47;3.63;;;;;;;17.04;48.19;101740.03;4995673;28;20022;-76
2022/02/05 03:41:52;;;;;;;6.30;3.60;;;;;;;17.05;48.17;101743.53;4995867;28;20088;-76
2022/02/05 03:44:18;;;;;;;6.35;3.80;;;;;;;17.05;48.33;101743.53;5013640;28;20028;-76
2022/02/05 03:46:43;;;;;;;5.95;3.50;;;;;;;17.03;48.42;101755.66;4995993;28;20113;-76
2022/02/05 03:49:11;;;;;;;6.40;3.60;;;;;;;17.03;48.14;101745.25;4999228;28;20354;-76
2022/02/05 03:51:36;;;;;;;5.45;3.13;;;;;;;17.02;48.29;101754.75;4999525;28;20041;-76
2022/02/05 03:54:01;;;;;;;6.05;3.35;;;;;;;17.04;48.20;101765.19;4999144;28;20049;-76
2022/02/05 03:56:27;;;;;;;5.68;3.40;;;;;;;17.02;48.16;101757.34;5016730;28;20027;-75
2022/02/05 03:58:52;;;;;;;6.07;3.50;;;;;;;17.02;48.43;101778.16;4982764;28;20099;-76
2022/02/05 04:01:17;;;;;;;5.50;3.40;;;;;;;17.02;48.39;101774.69;4999111;28;20022;-75
2022/02/05 04:03:43;;;;;;;5.90;3.42;;;;;;;17.01;48.09;101776.44;4982675;28;20472;-76
2022/02/05 04:06:08;;;;;;;6.95;3.78;;;;;;;17.03;48.20;101779.06;4982680;28;20436;-75
2022/02/05 04:08:34;;;;;;;5.60;3.17;;;;;;;17.02;48.27;101787.69;4999081;28;20041;-76
2022/02/05 04:11:08;;;;;;;6.78;3.22;;;;;;;17.01;48.25;101788.56;4999008;28;20026;-74
2022/02/05 04:16:23;;;;;;;5.10;3.20;;;;;;;17.00;48.23;101787.69;5016519;28;20041;-75
2022/02/05 04:18:55;;;;;;;6.47;3.10;;;;;;;17.01;48.13;101785.97;4983316;28;20571;-75
2022/02/05 04:21:22;;;;;;;4.57;2.90;;;;;;;17.01;48.24;101791.16;5016202;28;20041;-74
2022/02/05 04:23:48;;;;;;;4.97;3.20;;;;;;;17.00;48.18;101787.69;4998785;28;20498;-74
2022/02/05 04:26:15;;;;;;;6.45;3.10;;;;;;;16.99;48.00;101801.56;4998446;28;20026;-74
2022/02/05 04:28:40;;;;;;;5.28;3.00;;;;;;;16.99;47.95;101796.34;4998291;28;20491;-74
2022/02/05 04:31:06;;;;;;;5.38;3.00;;;;;;;16.99;48.19;101800.69;5016010;28;20038;-74
2022/02/05 04:33:31;;;;;;;5.97;3.28;;;;;;;16.98;48.09;101798.94;4998384;28;20056;-75
2022/02/05 04:35:57;;;;;;;4.95;2.90;;;;;;;16.98;48.16;101794.59;4982084;28;20026;-74
2022/02/05 04:38:23;;;;;;;7.00;3.10;;;;;;;16.98;47.97;101804.13;4982110;28;20479;-74
2022/02/05 04:41:04;;;;;;;5.05;2.85;;;;;;;16.97;48.20;101798.06;4982282;28;20026;-75
2022/02/05 04:46:22;;;;;;;5.55;3.10;;;;;;;16.97;48.12;101800.66;5015810;28;20018;-74
2022/02/05 04:49:22;;;;;;;5.45;2.78;;;;;;;16.96;47.99;101806.75;5015563;28;20040;-76
2022/02/05 04:57:24;;;;;;;5.53;2.80;;;;;;;16.95;48.14;101815.38;4998733;28;20030;-75
2022/02/05 05:05:16;;;;;;;4.43;2.50;;;;;;;16.96;47.88;101827.53;5015668;28;20038;-75
2022/02/05 05:10:32;;;;;;;5.80;2.75;;;;;;;16.95;48.17;101830.13;5015344;28;20389;-75
2022/02/05 05:13:12;;;;;;;5.78;2.70;;;;;;;16.95;47.66;101835.31;4998035;28;20093;-76
2022/02/05 05:19:13;;;;;;;5.75;2.70;;;;;;;16.94;47.96;101834.47;5015543;28;20036;-75
2022/02/05 05:21:10;;;;;;;;;;;;;;;16.93;48.02;101832.69;4987499;28;20423;-76
2022/02/05 05:23:36;;;;;;;5.65;2.47;;;;;;;16.93;47.79;101840.50;4997632;28;20267;-76
2022/02/05 05:26:01;;;;;;;4.88;2.58;;;;;;;16.93;47.85;101837.03;5014982;28;20104;-76
2022/02/05 05:28:29;;;;;;;4.78;2.33;;;;;;;16.94;47.87;101841.34;4997333;28;20041;-75
2022/02/05 05:30:54;;;;;;;5.53;2.65;;;;;;;16.92;47.97;101836.16;4966765;28;20403;-78
2022/02/05 05:33:20;;;;;;;4.85;2.47;;;;;;;16.92;48.06;101846.56;4981934;28;20026;-78
2022/02/05 05:35:45;;;;;;;4.88;2.47;;;;;;;16.91;47.89;101841.34;5014478;28;20365;-77
2022/02/05 05:38:11;;;;;;;4.28;2.30;;;;;;;16.92;47.92;101843.06;5022059;28;20034;-78
2022/02/05 05:40:37;;;;;;;3.88;2.20;;;;;;;16.91;47.96;101841.34;4973711;28;20022;-78
2022/02/05 05:43:06;;;;;;;4.88;2.42;;;;;;;16.91;47.61;101837.00;5021299;28;20022;-78
2022/02/05 05:46:13;;;;;;;5.15;2.50;;;;;;;16.89;47.92;101843.91;5003547;28;20026;-78
2022/02/05 05:51:13;;;;;;;5.00;2.47;;;;;;;16.90;48.06;101843.06;5021477;28;20046;-78
2022/02/05 05:53:38;;;;;;;4.78;2.60;;;;;;;16.89;47.85;101845.66;4984828;28;20049;-78
2022/02/05 05:56:04;;;;;;;5.97;2.40;;;;;;;16.88;48.22;101844.78;5001224;28;20035;-78
2022/02/05 05:58:30;;;;;;;3.55;2.00;;;;;;;16.88;47.99;101846.53;4968843;28;20084;-78
2022/02/05 06:00:55;;;;;;;5.55;2.53;;;;;;;16.87;48.05;101840.44;4983949;28;20034;-79
2022/02/05 06:03:21;;;;;;;4.43;2.15;;;;;;;16.87;47.83;101840.44;4983924;28;20036;-78
2022/02/05 06:05:47;;;;;;;4.93;2.13;;;;;;;16.88;47.87;101842.19;5018139;28;20044;-79
2022/02/05 06:08:13;;;;;;;3.97;2.05;;;;;;;16.87;47.91;101845.63;5018184;28;20081;-78
2022/02/05 06:10:38;;;;;;;5.15;2.38;;;;;;;16.89;47.78;101848.25;5018835;28;20034;-78
2022/02/05 06:13:04;;;;;;;3.47;1.95;;;;;;;16.87;47.85;101850.84;5001064;28;20053;-79
2022/02/05 06:15:29;;;;;;;4.53;2.08;;;;;;;16.87;47.96;101858.63;4982495;28;20029;-80
2022/02/05 06:17:55;;;;;;;4.05;1.90;;;;;;;16.87;48.03;101850.84;5000223;28;20388;-79
2022/02/05 06:20:20;;;;;;;4.50;2.13;;;;;;;16.87;48.00;101858.63;4989969;28;20033;-81
2022/02/05 06:22:46;;;;;;;4.15;1.90;;;;;;;16.86;48.08;101860.38;4988696;28;20488;-79
2022/02/05 06:25:11;;;;;;;4.00;2.15;;;;;;;16.87;48.02;101850.84;5002351;28;20377;-80
2022/02/05 06:27:37;;;;;;;4.10;2.13;;;;;;;16.86;48.42;101849.09;4986226;28;20033;-80
2022/02/05 06:30:04;;;;;;;3.88;1.98;;;;;;;16.86;48.05;101852.56;4984498;28;20037;-80
2022/02/05 06:32:30;;;;;;;5.88;2.08;;;;;;;16.88;48.22;101856.94;5003603;28;20116;-80
2022/02/05 06:34:55;;;;;;;4.10;1.85;;;;;;;16.88;48.32;101864.72;4988459;28;20045;-81
2022/02/05 06:37:21;;;;;;;3.80;1.92;;;;;;;16.88;48.17;101864.72;4970247;28;20044;-81
2022/02/05 06:39:46;;;;;;;4.18;2.15;;;;;;;16.89;48.27;101869.91;5018429;28;20022;-80
2022/02/05 06:42:12;;;;;;;3.97;2.00;;;;;;;16.89;48.14;101869.91;4967329;28;20052;-81
2022/02/05 06:44:37;;;;;;;3.45;1.92;;;;;;;16.90;48.21;101874.28;4984890;28;20033;-81
2022/02/05 06:54:51;;;;;;;4.50;2.00;;;;;;;16.89;48.40;101875.13;5770030;23;20058;-80
2022/02/05 06:57:16;;;;;;;6.03;2.13;;;;;;;16.92;48.40;101885.56;4986538;28;20040;-81
2022/02/05 06:59:42;;;;;;;3.45;1.75;;;;;;;16.93;48.44;101886.44;4986448;28;20022;-81
2022/02/05 07:02:08;;;;;;;4.43;1.70;;;;;;;16.93;48.62;101897.69;4991504;28;20031;-82
2022/02/05 07:04:37;;;;;;;3.15;1.70;;;;;;;16.92;48.46;101889.88;5009380;28;20033;-81
2022/02/05 07:07:02;;;;;;;4.50;1.90;;;;;;;16.92;48.69;101882.97;4992203;28;20031;-82
2022/02/05 07:09:28;;;;;;;4.13;1.95;;;;;;;16.94;48.34;101890.75;4989345;28;20030;-81
2022/02/05 07:12:00;;;;;;;3.42;1.55;;;;;;;16.94;48.61;101888.16;4985555;28;20113;-81
2022/02/05 07:14:36;;;;;;;6.97;1.90;;;;;;;16.93;48.39;101881.22;4984498;28;20054;-81
2022/02/05 07:17:10;;;;;;;3.40;1.58;;;;;;;16.94;48.31;101891.66;5002947;28;20117;-82
2022/02/05 07:22:19;;;;;;;4.93;2.00;;;;;;;16.96;49.12;101902.03;5002355;28;20029;-82
2022/02/05 07:30:12;;;;;;;4.00;1.73;;;;;;;16.96;48.42;101905.53;5012672;28;19925;-82
2022/02/05 07:32:38;;;;;;;2.95;1.50;;;;;;;16.98;48.64;101911.59;4993895;28;20026;-82
2022/02/05 07:35:04;;;;;;;4.00;1.73;;;;;;;16.98;48.50;101915.94;5011252;28;20027;-81
2022/02/05 07:37:33;;;;;;;3.03;1.60;;;;;;;16.99;48.70;101925.50;5001241;28;20044;-81
2022/02/05 07:39:58;;;;;;;4.65;1.85;;;;;;;16.98;48.58;101921.13;5000904;28;20049;-82
2022/02/05 07:42:25;;;;;;;3.95;1.77;;;;;;;16.98;48.87;101914.19;4992050;28;20022;-81
2022/02/05 07:44:54;;;;;;;4.55;1.70;;;;;;;16.99;48.83;101921.16;5010213;28;20022;-81
2022/02/05 07:47:22;;;;;;;3.50;1.60;;;;;;;17.01;48.64;101913.38;4992412;28;20476;-81
2022/02/05 07:49:50;;;;;;;3.95;1.65;;;;;;;17.02;48.83;101915.13;4990359;28;20030;-81
2022/02/05 07:52:16;;;;;;;2.47;1.30;;;;;;;17.02;48.61;101904.72;4971654;28;20366;-82
2022/02/05 07:54:42;;;;;;;4.00;1.80;;;;;;;17.03;48.73;101909.06;4999092;28;20054;-84
2022/02/05 07:57:10;;;;;;;3.83;1.70;;;;;;;17.02;48.72;101904.72;4998912;28;20019;-83
2022/02/05 07:59:35;;;;;;;3.25;1.50;;;;;;;17.02;48.62;101905.56;4981209;28;20075;-83
2022/02/05 08:02:04;;;;;;;3.20;1.52;;;;;;;17.02;48.88;101913.38;5000025;28;20027;-83
2022/02/05 08:04:36;;;;;;;3.90;1.73;;;;;;;17.02;48.66;101905.56;4999950;28;20082;-82
2022/02/05 08:07:19;;;;;;;2.47;1.25;;;;;;;17.06;48.62;101909.97;4998534;28;20006;-82
2022/02/05 08:13:11;;;;;;;3.83;1.45;;;;;;;17.11;48.61;101902.19;4935032;29;20072;-78
2022/02/05 08:15:36;;;;;;;2.55;1.50;;;;;;;17.12;48.64;101908.28;4928307;29;20068;-78
2022/02/05 08:18:02;;;;;;;3.75;1.52;;;;;;;17.13;48.48;101908.28;4923463;29;20068;-78
2022/02/05 08:20:27;;;;;;;3.70;1.38;;;;;;;17.16;48.49;101913.53;4906161;29;20032;-78
2022/02/05 08:22:53;;;;;;;3.42;1.60;;;;;;;17.19;48.04;101905.75;4905808;29;20028;-78
2022/02/05 08:25:18;;;;;;;6.40;1.55;;;;;;;17.22;48.60;101912.69;4920876;29;20050;-77
2022/02/05 08:27:44;;;;;;;3.20;1.40;;;;;;;17.23;48.40;101912.72;4904922;29;20060;-76
2022/02/05 08:30:12;;;;;;;4.25;1.30;;;;;;;17.26;48.17;101924.88;4904202;29;20140;-77
2022/02/05 08:32:39;;;;;;;4.05;1.60;;;;;;;17.30;48.08;101925.78;4919125;29;20032;-77
2022/02/05 08:35:06;;;;;;;2.95;1.40;;;;;;;17.35;48.15;101937.09;4921974;29;20466;-78
2022/02/05 08:37:37;;;;;;;4.50;1.65;;;;;;;17.33;48.27;101941.41;4922172;29;20039;-77
2022/02/05 08:40:03;;;;;;;3.88;1.40;;;;;;;17.33;48.16;101946.63;4935814;28;20031;-77
2022/02/05 08:42:29;;;;;;;2.60;1.40;;;;;;;17.32;48.69;101950.97;4978950;28;20042;-77
2022/02/05 08:44:54;;;;;;;6.07;1.40;;;;;;;17.33;48.54;101967.44;4961381;28;20031;-75
2022/02/05 08:47:20;;;;;;;3.45;1.42;;;;;;;17.45;48.38;101957.16;4950655;28;20038;-76
2022/02/05 08:49:45;;;;;;;6.90;1.67;;;;;;;17.48;48.42;101963.25;4974889;28;20034;-75
2022/02/05 08:52:12;;;;;;;5.43;1.52;;;;;;;17.48;48.66;101965.88;4956493;28;20054;-76
2022/02/05 08:54:39;;;;;;;5.82;1.55;;;;;;;17.54;48.53;101970.25;4977791;28;20051;-75
2022/02/05 08:57:05;;;;;;;7.80;1.70;;;;;;;17.58;48.56;101963.34;4977477;28;20033;-75
2022/02/05 08:59:42;;;;;;;4.68;1.85;;;;;;;17.59;48.63;101962.47;4976777;28;20076;-75
2022/02/05 09:02:17;;;;;;;4.32;1.52;;;;;;;17.57;48.56;101962.47;4976484;28;20023;-75
2022/02/05 09:07:14;;;;;;;4.95;1.85;;;;;;;17.62;48.22;101960.78;4976398;28;20532;-76
2022/02/05 09:10:06;;;;;;;7.85;1.63;;;;;;;17.61;48.25;101964.22;4976998;28;20034;-75
2022/02/05 09:14:57;;;;;;;3.47;1.40;;;;;;;17.62;48.29;101967.72;4960746;28;20037;-76
2022/02/05 09:17:23;;;;;;;4.65;1.50;;;;;;;17.61;48.42;101963.34;4976576;28;20033;-76
2022/02/05 09:19:49;;;;;;;4.63;1.38;;;;;;;17.60;48.25;101961.63;4977000;28;20027;-76
2022/02/05 09:22:15;;;;;;;3.33;1.52;;;;;;;17.59;48.26;101957.25;4977150;28;20030;-76
2022/02/05 09:24:40;;;;;;;2.58;1.38;;;;;;;17.62;48.22;101954.69;4975841;28;20034;-76
2022/02/05 09:27:09;;;;;;;3.78;1.40;;;;;;;17.59;48.29;101952.06;4975807;28;20073;-76
2022/02/05 09:29:46;;;;;;;4.72;1.30;;;;;;;17.58;48.37;101948.59;4959391;28;20122;-75
2022/02/05 09:32:11;;;;;;;3.33;1.45;;;;;;;17.56;48.20;101949.44;4977286;28;20086;-76
2022/02/05 09:34:37;;;;;;;4.43;1.58;;;;;;;17.54;48.28;101944.22;4976315;28;20031;-76
2022/02/05 09:37:02;;;;;;;4.50;1.73;;;;;;;17.53;48.25;101942.47;4976383;28;20031;-76
2022/02/05 09:39:28;;;;;;;6.75;2.00;;;;;;;17.53;48.46;101934.69;4975705;28;20089;-76
2022/02/05 09:41:53;;;;;;;4.53;1.70;;;;;;;17.52;48.36;101940.72;4975768;28;20026;-75
2022/02/05 09:44:19;;;;;;;4.10;1.42;;;;;;;17.50;48.34;101951.97;4975640;28;20030;-76
2022/02/05 09:46:44;;;;;;;4.88;1.50;;;;;;;17.52;48.63;101955.47;4959670;28;20034;-76
2022/02/05 09:49:10;;;;;;;3.80;1.55;;;;;;;17.50;48.55;101947.63;4959900;28;20035;-76
2022/02/05 09:51:45;;;;;;;3.22;1.50;;;;;;;17.51;48.33;101951.09;4976146;28;20389;-76
2022/02/05 09:54:10;;;;;;;5.40;1.63;;;;;;;17.51;48.51;101946.81;4959463;28;20026;-76
2022/02/05 09:56:38;;;;;;;3.92;1.50;;;;;;;17.51;48.59;101949.41;4976081;28;20495;-76
2022/02/05 09:59:04;;;;;;;5.45;1.60;;;;;;;17.52;48.34;101952.88;4976090;28;20023;-76
2022/02/05 10:01:36;;;;;;;3.28;1.67;;;;;;;17.51;48.21;101957.22;4977522;28;20077;-76
2022/02/05 10:04:07;;;;;;;4.95;1.60;;;;;;;17.48;48.37;101952.84;4960463;28;20031;-76
2022/02/05 10:06:39;;;;;;;3.97;1.40;;;;;;;17.48;48.40;101947.66;4976932;28;20042;-76
2022/02/05 10:09:14;;;;;;;4.00;1.52;;;;;;;17.52;48.29;101937.25;4976116;28;20031;-76
2022/02/05 10:11:47;;;;;;;6.82;2.05;;;;;;;17.55;48.37;101939.88;4977457;28;20026;-75
2022/02/05 10:14:21;;;;;;;;;;;;;;;17.56;48.12;101934.69;4976442;28;20429;-76
2022/02/05 10:17:05;;;;;;;;;;;;;;;17.59;47.97;101944.25;4976190;28;19910;-76
2022/02/05 10:19:51;;;;;;;3.80;1.48;;;;;;;17.61;47.94;101937.31;4977836;28;19957;-76
2022/02/05 10:22:19;;;;;;;5.18;1.67;;;;;;;17.60;48.20;101926.03;4977202;28;20102;-75
2022/02/05 10:24:49;;;;;;;4.65;1.48;;;;;;;17.62;48.03;101932.13;4974730;28;20501;-75
2022/02/05 10:27:31;;;;;;;4.05;1.65;;;;;;;17.64;47.83;101933.03;4976034;28;20049;-75
2022/02/05 10:30:25;;;;;;;7.07;1.48;;;;;;;17.67;47.64;101937.38;4975748;28;20513;-75
2022/02/05 10:33:04;;;;;;;5.38;1.77;;;;;;;17.68;47.87;101932.19;4977826;28;20026;-77
2022/02/05 10:38:51;;;;;;;7.78;1.92;;;;;;;17.61;48.22;101927.78;4979342;28;20026;-78
2022/02/05 10:44:23;;;;;;;6.28;2.00;;;;;;;17.57;47.99;101933.84;4979052;28;20035;-76
2022/02/05 10:46:53;;;;;;;11.43;2.00;;;;;;;17.57;48.22;101935.56;4962910;28;20438;-77
2022/02/05 10:49:39;;;;;;;9.18;1.70;;;;;;;17.58;48.20;101937.31;4982791;28;20378;-77
2022/02/05 10:52:05;;;;;;;4.18;1.60;;;;;;;17.56;48.02;101923.41;4986408;28;20031;-77
2022/02/05 10:54:50;;;;;;;5.13;1.38;;;;;;;17.55;48.12;101934.66;4982976;28;20065;-76
2022/02/05 10:57:24;;;;;;;5.78;1.90;;;;;;;17.54;48.08;101925.13;4986950;28;20036;-78
2022/02/05 11:08:06;;;;;;;4.38;1.60;;;;;;;17.51;47.80;101930.28;4984889;28;20089;-77
2022/02/05 11:21:21;;;;;;;9.10;1.95;;;;;;;17.50;47.75;101906.00;4986340;28;20082;-78
2022/02/05 11:23:55;;;;;;;7.82;1.75;;;;;;;17.50;47.96;101907.75;4988692;28;20031;-78
2022/02/05 11:26:22;;;;;;;5.25;1.60;;;;;;;17.48;47.66;101906.00;4987009;28;20539;-78
2022/02/05 11:28:48;;;;;;;4.53;1.65;;;;;;;17.52;47.90;101911.22;4970425;28;20026;-79
2022/02/05 11:31:33;;;;;;;3.67;1.42;;;;;;;17.51;47.60;101901.66;4985163;28;20026;-79
2022/02/05 11:34:23;;;;;;;7.20;1.75;;;;;;;17.52;47.63;101895.63;4987089;28;20476;-79
2022/02/05 11:37:03;;;;;;;4.45;1.70;;;;;;;17.52;48.09;101885.19;4986194;28;20034;-79
2022/02/05 11:39:28;;;;;;;6.10;1.60;;;;;;;17.52;47.79;101895.63;4987258;28;20022;-79
2022/02/05 11:41:55;;;;;;;7.88;1.77;;;;;;;17.52;47.58;101891.28;4987743;28;20054;-79
2022/02/05 11:44:39;;;;;;;6.65;1.50;;;;;;;17.52;47.95;101885.19;4970794;28;20042;-79
2022/02/05 11:47:07;;;;;;;5.70;1.80;;;;;;;17.54;47.73;101880.88;4986349;28;20030;-78
2022/02/05 11:49:50;;;;;;;4.93;1.65;;;;;;;17.53;47.70;101881.72;4984769;28;20113;-78
2022/02/05 11:52:35;;;;;;;5.97;1.67;;;;;;;17.53;47.78;101872.22;4984685;28;20031;-78
2022/02/05 11:55:02;;;;;;;6.20;2.10;;;;;;;17.53;47.67;101863.50;4986976;28;20057;-80
2022/02/05 11:57:46;;;;;;;6.70;1.85;;;;;;;17.53;47.71;101853.09;4970107;28;20449;-79
2022/02/05 12:00:18;;;;;;;;;;;;;;;17.54;47.69;101849.66;4987717;28;20054;-82
2022/02/05 12:02:54;;;;;;;7.00;1.80;;;;;;;17.55;47.82;101848.78;4970659;28;20332;-78
2022/02/05 12:05:28;;;;;;;4.35;1.58;;;;;;;17.56;47.94;101850.53;4967813;28;20030;-79
2022/02/05 12:08:05;;;;;;;8.13;1.75;;;;;;;17.57;48.10;101863.56;4966939;28;20388;-80
2022/02/05 12:10:50;;;;;;;6.40;1.50;;;;;;;17.58;48.42;101854.03;4983977;28;20027;-78
2022/02/05 12:13:39;;;;;;;5.30;1.50;;;;;;;17.60;48.52;101857.50;4966569;28;20035;-77
2022/02/05 12:16:06;;;;;;;4.47;1.70;;;;;;;17.60;49.12;101850.56;4981959;28;20030;-77
2022/02/05 12:18:57;;;;;;;5.80;1.77;;;;;;;17.61;49.43;101844.47;4979377;28;20031;-77
2022/02/05 12:21:30;;;;;;;9.55;2.03;;;;;;;17.60;49.53;101837.53;4980542;28;20113;-78
2022/02/05 12:26:25;;;;;;;6.93;1.83;;;;;;;17.62;49.54;101834.97;4982636;28;20050;-78
2022/02/05 12:28:52;;;;;;;6.88;1.92;;;;;;;17.59;49.83;101832.31;4981169;28;20034;-79
2022/02/05 12:31:17;;;;;;;7.18;1.80;;;;;;;17.58;49.59;101823.66;4981257;28;20053;-78
2022/02/05 12:33:53;;;;;;;4.72;1.70;;;;;;;17.58;49.78;101828.84;4980439;28;20026;-77
2022/02/05 12:36:31;;;;;;;5.03;1.60;;;;;;;17.60;49.88;101826.28;4980312;28;20420;-78
2022/02/05 12:38:58;;;;;;;4.47;1.60;;;;;;;17.60;49.60;101826.28;4981164;28;20380;-77
2022/02/05 12:41:25;;;;;;;5.35;1.67;;;;;;;17.60;49.35;101828.88;4981777;28;20034;-77
2022/02/05 12:43:53;;;;;;;7.25;1.80;;;;;;;17.58;49.61;101828.84;4981343;28;20416;-77
2022/02/05 12:46:25;;;;;;;3.95;1.55;;;;;;;17.59;49.62;101822.78;4979797;28;20025;-78
2022/02/05 12:48:57;;;;;;;3.97;1.50;;;;;;;17.60;49.53;101814.13;4964290;28;20022;-76
2022/02/05 12:51:23;;;;;;;7.18;2.05;;;;;;;17.60;49.55;101801.09;4963601;28;20031;-75
2022/02/05 12:53:49;;;;;;;6.00;1.80;;;;;;;17.61;49.66;101797.63;4978892;28;20037;-76
2022/02/05 12:56:20;;;;;;;6.15;2.20;;;;;;;17.60;49.49;101793.31;4961805;28;20405;-76
2022/02/05 12:59:04;;;;;;;5.70;1.70;;;;;;;17.59;49.48;101783.72;4979437;28;20050;-76
2022/02/05 13:01:37;;;;;;;3.45;1.50;;;;;;;17.61;49.50;101782.00;4979877;28;20062;-76
2022/02/05 13:04:13;;;;;;;5.57;1.65;;;;;;;17.62;49.34;101775.97;4979849;28;20027;-75
2022/02/05 13:06:39;;;;;;;3.88;1.60;;;;;;;17.63;49.41;101777.69;4980775;28;20027;-76
2022/02/05 13:09:18;;;;;;;5.30;1.85;;;;;;;17.63;49.34;101769.88;4980371;28;20069;-77
2022/02/05 13:11:43;;;;;;;5.70;1.80;;;;;;;17.64;49.46;101766.44;4980946;28;20492;-80
2022/02/05 13:14:09;;;;;;;5.35;1.90;;;;;;;17.65;49.47;101770.75;4980904;28;20106;-78
2022/02/05 13:16:40;;;;;;;12.50;2.03;;;;;;;17.79;49.30;101780.38;4981227;28;20125;-80
2022/02/05 13:19:21;;;;;;;17.27;2.28;;;;;;;17.75;51.22;101768.22;4965582;28;20023;-78
2022/02/05 13:27:45;;;;;;;11.68;2.13;;;;;;;16.97;57.18;101746.06;4978605;28;20122;-76
2022/02/05 13:35:52;;;;;;;;;;;;;;;16.67;57.72;101744.91;4966979;28;20042;-76
2022/02/05 13:38:19;;;;;;;8.88;2.10;;;;;;;16.65;58.15;101736.22;4964492;28;19910;-76
2022/02/05 13:40:44;;;;;;;18.58;2.45;;;;;;;16.65;57.35;101751.81;4983140;28;20027;-76
2022/02/05 13:43:18;;;;;;;16.95;2.15;;;;;;;16.64;57.77;101736.25;4982758;28;20031;-76
2022/02/05 13:45:43;;;;;;;18.00;2.30;;;;;;;16.56;58.87;101738.75;4983810;28;20121;-76
2022/02/05 13:48:22;;;;;;;12.10;2.45;;;;;;;16.56;57.77;101736.16;4983506;28;20038;-76
2022/02/05 13:50:48;;;;;;;10.43;2.47;;;;;;;16.55;57.47;101724.03;4984303;28;20035;-76
2022/02/05 13:53:14;;;;;;;15.50;2.80;;;;;;;16.58;57.43;101726.66;4984973;28;20027;-77
2022/02/05 13:55:41;;;;;;;25.27;6.47;;;;;;;16.62;59.38;101724.97;4967005;28;20141;-77
2022/02/05 13:58:08;;;;;;;21.88;5.18;;;;;;;16.68;60.75;101706.81;4968783;28;20050;-77
2022/02/05 14:00:44;;;;;;;15.88;4.15;;;;;;;16.76;59.78;101717.25;4981965;28;20026;-76
2022/02/05 14:03:11;;;;;;;13.25;3.65;;;;;;;16.74;58.74;101712.03;4984518;28;20033;-75
2022/02/05 14:06:01;;;;;;;9.60;2.72;;;;;;;16.85;58.81;101717.34;4985017;28;20078;-76
2022/02/05 14:08:29;;;;;;;14.82;3.50;;;;;;;16.91;57.63;101709.63;4986245;28;20030;-78
2022/02/05 14:11:05;;;;;;;12.25;2.80;;;;;;;16.87;56.75;101700.03;4974202;28;20023;-76
2022/02/05 14:13:31;;;;;;;14.75;2.88;;;;;;;17.01;58.61;101695.81;4982463;28;20030;-76
2022/02/05 14:15:59;;;;;;;11.68;2.85;;;;;;;16.97;58.38;101699.25;4984029;28;20034;-77
2022/02/05 14:18:26;;;;;;;13.35;3.00;;;;;;;16.93;58.09;101689.69;4982759;28;20030;-76
2022/02/05 14:20:54;;;;;;;11.35;2.40;;;;;;;16.91;58.22;101694.00;4964013;28;20054;-77
2022/02/05 14:23:44;;;;;;;12.98;2.88;;;;;;;16.89;58.12;101700.94;4967432;28;20023;-76
2022/02/05 14:26:16;;;;;;;9.70;2.75;;;;;;;16.91;57.42;101688.81;4983743;28;20386;-77
2022/02/05 14:28:51;;;;;;;9.95;2.70;;;;;;;16.88;57.57;101691.41;4982253;28;20035;-77
2022/02/05 14:31:29;;;;;;;13.88;2.95;;;;;;;16.88;57.80;101688.81;4981924;28;20049;-76
2022/02/05 14:40:13;;;;;;;9.20;2.67;;;;;;;16.88;57.65;101686.22;4977044;28;20031;-76